sensor_id;sensor_type;location;lat;lon;timestamp;temperature;humidity
11647;DHT22;5880;52.342;9.662;2023-02-01T00:00:23;8.40;64.80
11647;DHT22;5880;52.342;9.662;2023-02-01T00:02:48;8.40;64.80
11647;DHT22;5880;52.342;9.662;2023-02-01T00:05:14;8.40;65.00
11647;DHT22;5880;52.342;9.662;2023-02-01T00:07:40;8.40;64.80
11647;DHT22;5880;52.342;9.662;2023-02-01T00:10:06;8.40;64.90
11647;DHT22;5880;52.342;9.662;2023-02-01T00:12:33;8.40;64.80
11647;DHT22;5880;52.342;9.662;2023-02-01T00:14:59;8.40;64.90
11647;DHT22;5880;52.342;9.662;2023-02-01T00:17:25;8.40;65.00
11647;DHT22;5880;52.342;9.662;2023-02-01T00:19:50;8.30;65.00
11647;DHT22;5880;52.342;9.662;2023-02-01T00:22:16;8.30;65.00
11647;DHT22;5880;52.342;9.662;2023-02-01T00:24:42;8.30;64.70
11647;DHT22;5880;52.342;9.662;2023-02-01T00:27:07;8.40;64.80
11647;DHT22;5880;52.342;9.662;2023-02-01T00:29:33;8.30;64.90
11647;DHT22;5880;52.342;9.662;2023-02-01T00:31:59;8.30;64.90
11647;DHT22;5880;52.342;9.662;2023-02-01T00:34:24;8.30;64.80
11647;DHT22;5880;52.342;9.662;2023-02-01T00:36:50;8.30;64.80
11647;DHT22;5880;52.342;9.662;2023-02-01T00:39:16;8.30;64.80
11647;DHT22;5880;52.342;9.662;2023-02-01T00:41:42;8.30;64.90
11647;DHT22;5880;52.342;9.662;2023-02-01T00:44:08;8.30;64.90
11647;DHT22;5880;52.342;9.662;2023-02-01T00:46:34;8.40;64.90
11647;DHT22;5880;52.342;9.662;2023-02-01T00:48:59;8.30;64.80
11647;DHT22;5880;52.342;9.662;2023-02-01T00:51:28;8.30;64.90
11647;DHT22;5880;52.342;9.662;2023-02-01T00:53:56;8.30;64.90
11647;DHT22;5880;52.342;9.662;2023-02-01T00:56:22;8.30;64.70
11647;DHT22;5880;52.342;9.662;2023-02-01T00:58:48;8.30;64.70
11647;DHT22;5880;52.342;9.662;2023-02-01T01:01:16;8.30;64.80
11647;DHT22;5880;52.342;9.662;2023-02-01T01:03:55;8.30;64.80
11647;DHT22;5880;52.342;9.662;2023-02-01T01:06:27;8.30;64.70
11647;DHT22;5880;52.342;9.662;2023-02-01T01:08:56;8.30;64.70
11647;DHT22;5880;52.342;9.662;2023-02-01T01:11:26;8.30;64.80
11647;DHT22;5880;52.342;9.662;2023-02-01T01:13:57;8.30;64.80
11647;DHT22;5880;52.342;9.662;2023-02-01T01:16:24;8.20;64.60
11647;DHT22;5880;52.342;9.662;2023-02-01T01:18:52;8.20;64.70
11647;DHT22;5880;52.342;9.662;2023-02-01T01:21:18;8.20;64.60
11647;DHT22;5880;52.342;9.662;2023-02-01T01:23:45;8.20;64.70
11647;DHT22;5880;52.342;9.662;2023-02-01T01:26:14;8.40;64.70
11647;DHT22;5880;52.342;9.662;2023-02-01T01:28:45;8.20;64.50
11647;DHT22;5880;52.342;9.662;2023-02-01T01:31:12;8.20;64.60
11647;DHT22;5880;52.342;9.662;2023-02-01T01:33:39;8.20;64.60
11647;DHT22;5880;52.342;9.662;2023-02-01T01:36:07;8.20;64.50
11647;DHT22;5880;52.342;9.662;2023-02-01T01:38:41;8.20;64.50
11647;DHT22;5880;52.342;9.662;2023-02-01T01:41:08;8.20;64.50
11647;DHT22;5880;52.342;9.662;2023-02-01T01:43:56;8.20;64.40
11647;DHT22;5880;52.342;9.662;2023-02-01T01:46:35;8.30;64.40
11647;DHT22;5880;52.342;9.662;2023-02-01T01:49:12;8.20;64.50
11647;DHT22;5880;52.342;9.662;2023-02-01T01:51:49;8.20;64.40
11647;DHT22;5880;52.342;9.662;2023-02-01T01:54:31;8.30;64.50
11647;DHT22;5880;52.342;9.662;2023-02-01T01:57:11;8.20;64.30
11647;DHT22;5880;52.342;9.662;2023-02-01T01:59:53;8.20;64.40
11647;DHT22;5880;52.342;9.662;2023-02-01T02:02:43;8.30;64.60
11647;DHT22;5880;52.342;9.662;2023-02-01T02:05:12;8.20;64.40
11647;DHT22;5880;52.342;9.662;2023-02-01T02:07:44;8.20;64.30
11647;DHT22;5880;52.342;9.662;2023-02-01T02:10:15;8.20;64.30
11647;DHT22;5880;52.342;9.662;2023-02-01T02:12:43;8.20;64.50
11647;DHT22;5880;52.342;9.662;2023-02-01T02:15:12;8.20;64.60
11647;DHT22;5880;52.342;9.662;2023-02-01T02:17:59;8.20;64.50
11647;DHT22;5880;52.342;9.662;2023-02-01T02:24:25;8.20;64.30
11647;DHT22;5880;52.342;9.662;2023-02-01T02:30:24;8.30;64.40
11647;DHT22;5880;52.342;9.662;2023-02-01T02:36:37;8.30;64.40
11647;DHT22;5880;52.342;9.662;2023-02-01T02:42:14;8.30;64.00
11647;DHT22;5880;52.342;9.662;2023-02-01T02:45:18;8.30;64.10
11647;DHT22;5880;52.342;9.662;2023-02-01T02:48:27;8.20;64.40
11647;DHT22;5880;52.342;9.662;2023-02-01T02:54:07;8.30;64.70
11647;DHT22;5880;52.342;9.662;2023-02-01T02:56:58;8.30;64.50
11647;DHT22;5880;52.342;9.662;2023-02-01T02:59:47;8.30;64.80
11647;DHT22;5880;52.342;9.662;2023-02-01T03:02:34;8.30;64.70
11647;DHT22;5880;52.342;9.662;2023-02-01T03:05:19;8.30;64.70
11647;DHT22;5880;52.342;9.662;2023-02-01T03:08:08;8.30;64.80
11647;DHT22;5880;52.342;9.662;2023-02-01T03:16:33;8.20;64.70
11647;DHT22;5880;52.342;9.662;2023-02-01T03:19:24;8.20;64.50
11647;DHT22;5880;52.342;9.662;2023-02-01T03:22:00;8.20;64.50
11647;DHT22;5880;52.342;9.662;2023-02-01T03:32:54;8.20;64.70
11647;DHT22;5880;52.342;9.662;2023-02-01T03:35:44;8.30;64.90
11647;DHT22;5880;52.342;9.662;2023-02-01T03:39:00;8.30;64.80
11647;DHT22;5880;52.342;9.662;2023-02-01T03:41:20;8.30;65.00
11647;DHT22;5880;52.342;9.662;2023-02-01T03:47:02;8.30;64.90
11647;DHT22;5880;52.342;9.662;2023-02-01T03:49:39;8.30;64.80
11647;DHT22;5880;52.342;9.662;2023-02-01T03:52:14;8.40;64.80
11647;DHT22;5880;52.342;9.662;2023-02-01T03:54:44;8.30;65.00
11647;DHT22;5880;52.342;9.662;2023-02-01T03:57:14;8.40;65.00
11647;DHT22;5880;52.342;9.662;2023-02-01T03:59:46;8.30;64.90
11647;DHT22;5880;52.342;9.662;2023-02-01T04:02:12;8.40;64.90
11647;DHT22;5880;52.342;9.662;2023-02-01T04:04:37;8.30;65.10
11647;DHT22;5880;52.342;9.662;2023-02-01T04:07:03;8.30;65.10
11647;DHT22;5880;52.342;9.662;2023-02-01T04:09:29;8.40;65.10
11647;DHT22;5880;52.342;9.662;2023-02-01T04:11:55;8.40;65.10
11647;DHT22;5880;52.342;9.662;2023-02-01T04:14:21;8.40;65.10
11647;DHT22;5880;52.342;9.662;2023-02-01T04:16:46;8.40;65.10
11647;DHT22;5880;52.342;9.662;2023-02-01T04:19:12;8.40;65.20
11647;DHT22;5880;52.342;9.662;2023-02-01T04:21:38;8.40;65.10
11647;DHT22;5880;52.342;9.662;2023-02-01T04:24:04;8.40;65.10
11647;DHT22;5880;52.342;9.662;2023-02-01T04:26:30;8.50;65.20
11647;DHT22;5880;52.342;9.662;2023-02-01T04:28:55;8.40;65.10
11647;DHT22;5880;52.342;9.662;2023-02-01T04:31:21;8.50;65.20
11647;DHT22;5880;52.342;9.662;2023-02-01T04:33:54;8.50;65.10
11647;DHT22;5880;52.342;9.662;2023-02-01T04:36:21;8.50;65.00
11647;DHT22;5880;52.342;9.662;2023-02-01T04:38:48;8.50;65.10
11647;DHT22;5880;52.342;9.662;2023-02-01T04:41:14;8.50;64.90
11647;DHT22;5880;52.342;9.662;2023-02-01T04:43:45;8.60;64.90
11647;DHT22;5880;52.342;9.662;2023-02-01T04:46:11;8.50;64.80
11647;DHT22;5880;52.342;9.662;2023-02-01T04:48:37;8.50;64.70
11647;DHT22;5880;52.342;9.662;2023-02-01T04:51:03;8.60;65.00
11647;DHT22;5880;52.342;9.662;2023-02-01T04:53:29;8.60;65.00
11647;DHT22;5880;52.342;9.662;2023-02-01T04:55:55;8.60;65.80
11647;DHT22;5880;52.342;9.662;2023-02-01T04:58:21;8.60;65.10
11647;DHT22;5880;52.342;9.662;2023-02-01T05:00:47;8.60;65.10
11647;DHT22;5880;52.342;9.662;2023-02-01T05:03:13;8.50;65.20
11647;DHT22;5880;52.342;9.662;2023-02-01T05:05:38;8.50;65.20
11647;DHT22;5880;52.342;9.662;2023-02-01T05:08:04;8.50;65.30
11647;DHT22;5880;52.342;9.662;2023-02-01T05:10:30;8.40;65.30
11647;DHT22;5880;52.342;9.662;2023-02-01T05:12:55;8.30;65.40
11647;DHT22;5880;52.342;9.662;2023-02-01T05:15:40;8.30;65.50
11647;DHT22;5880;52.342;9.662;2023-02-01T05:18:05;8.30;65.60
11647;DHT22;5880;52.342;9.662;2023-02-01T05:20:31;8.30;65.90
11647;DHT22;5880;52.342;9.662;2023-02-01T05:22:56;8.20;66.00
11647;DHT22;5880;52.342;9.662;2023-02-01T05:25:22;8.20;66.00
11647;DHT22;5880;52.342;9.662;2023-02-01T05:27:48;8.20;66.20
11647;DHT22;5880;52.342;9.662;2023-02-01T05:30:14;8.20;66.30
11647;DHT22;5880;52.342;9.662;2023-02-01T05:32:40;8.10;66.30
11647;DHT22;5880;52.342;9.662;2023-02-01T05:35:06;8.10;66.30
11647;DHT22;5880;52.342;9.662;2023-02-01T05:37:32;8.10;66.40
11647;DHT22;5880;52.342;9.662;2023-02-01T05:39:57;8.10;66.60
11647;DHT22;5880;52.342;9.662;2023-02-01T05:42:23;8.10;66.60
11647;DHT22;5880;52.342;9.662;2023-02-01T05:44:49;8.20;66.70
11647;DHT22;5880;52.342;9.662;2023-02-01T05:47:14;8.00;66.70
11647;DHT22;5880;52.342;9.662;2023-02-01T05:49:40;8.00;66.80
11647;DHT22;5880;52.342;9.662;2023-02-01T05:52:06;8.00;66.80
11647;DHT22;5880;52.342;9.662;2023-02-01T05:54:32;8.00;66.80
11647;DHT22;5880;52.342;9.662;2023-02-01T05:56:57;8.00;67.00
11647;DHT22;5880;52.342;9.662;2023-02-01T05:59:23;8.00;67.00
11647;DHT22;5880;52.342;9.662;2023-02-01T06:01:49;8.10;67.10
11647;DHT22;5880;52.342;9.662;2023-02-01T06:04:14;8.10;67.00
11647;DHT22;5880;52.342;9.662;2023-02-01T06:06:40;8.10;67.10
11647;DHT22;5880;52.342;9.662;2023-02-01T06:09:06;8.10;67.10
11647;DHT22;5880;52.342;9.662;2023-02-01T06:11:31;8.10;67.00
11647;DHT22;5880;52.342;9.662;2023-02-01T06:13:57;8.10;67.00
11647;DHT22;5880;52.342;9.662;2023-02-01T06:16:23;8.10;67.40
11647;DHT22;5880;52.342;9.662;2023-02-01T06:18:49;8.10;67.30
11647;DHT22;5880;52.342;9.662;2023-02-01T06:21:14;8.00;67.20
11647;DHT22;5880;52.342;9.662;2023-02-01T06:23:52;8.10;67.30
11647;DHT22;5880;52.342;9.662;2023-02-01T06:26:18;8.10;67.30
11647;DHT22;5880;52.342;9.662;2023-02-01T06:28:44;8.30;67.40
11647;DHT22;5880;52.342;9.662;2023-02-01T06:31:10;8.10;67.30
11647;DHT22;5880;52.342;9.662;2023-02-01T06:33:37;8.10;67.30
11647;DHT22;5880;52.342;9.662;2023-02-01T06:36:05;8.20;67.30
11647;DHT22;5880;52.342;9.662;2023-02-01T06:38:32;8.10;67.40
11647;DHT22;5880;52.342;9.662;2023-02-01T06:41:00;8.10;67.40
11647;DHT22;5880;52.342;9.662;2023-02-01T06:43:26;8.10;67.30
11647;DHT22;5880;52.342;9.662;2023-02-01T06:45:53;8.10;67.30
11647;DHT22;5880;52.342;9.662;2023-02-01T06:48:18;8.10;67.70
11647;DHT22;5880;52.342;9.662;2023-02-01T06:50:44;8.10;67.30
11647;DHT22;5880;52.342;9.662;2023-02-01T06:53:10;8.10;67.50
11647;DHT22;5880;52.342;9.662;2023-02-01T06:55:36;8.10;67.40
11647;DHT22;5880;52.342;9.662;2023-02-01T06:58:02;8.10;67.40
11647;DHT22;5880;52.342;9.662;2023-02-01T07:00:28;8.10;67.50
11647;DHT22;5880;52.342;9.662;2023-02-01T07:02:54;8.10;67.60
11647;DHT22;5880;52.342;9.662;2023-02-01T07:05:20;8.10;67.70
11647;DHT22;5880;52.342;9.662;2023-02-01T07:07:46;8.00;67.80
11647;DHT22;5880;52.342;9.662;2023-02-01T07:10:12;8.10;67.90
11647;DHT22;5880;52.342;9.662;2023-02-01T07:12:38;8.10;67.90
11647;DHT22;5880;52.342;9.662;2023-02-01T07:15:05;8.00;67.70
11647;DHT22;5880;52.342;9.662;2023-02-01T07:17:31;8.10;67.80
11647;DHT22;5880;52.342;9.662;2023-02-01T07:19:57;8.10;68.20
11647;DHT22;5880;52.342;9.662;2023-02-01T07:22:27;8.10;68.00
11647;DHT22;5880;52.342;9.662;2023-02-01T07:24:53;8.10;67.90
11647;DHT22;5880;52.342;9.662;2023-02-01T07:27:19;8.10;67.70
11647;DHT22;5880;52.342;9.662;2023-02-01T07:29:45;8.10;67.80
11647;DHT22;5880;52.342;9.662;2023-02-01T07:32:11;8.10;67.90
11647;DHT22;5880;52.342;9.662;2023-02-01T07:34:36;8.10;67.90
11647;DHT22;5880;52.342;9.662;2023-02-01T07:37:02;8.10;68.00
11647;DHT22;5880;52.342;9.662;2023-02-01T07:39:28;8.10;68.10
11647;DHT22;5880;52.342;9.662;2023-02-01T07:41:54;8.20;68.10
11647;DHT22;5880;52.342;9.662;2023-02-01T07:44:20;8.20;68.30
11647;DHT22;5880;52.342;9.662;2023-02-01T07:46:49;8.20;68.10
11647;DHT22;5880;52.342;9.662;2023-02-01T07:49:15;8.20;68.20
11647;DHT22;5880;52.342;9.662;2023-02-01T07:51:42;8.30;68.20
11647;DHT22;5880;52.342;9.662;2023-02-01T07:54:08;8.30;68.10
11647;DHT22;5880;52.342;9.662;2023-02-01T07:56:34;8.30;68.00
11647;DHT22;5880;52.342;9.662;2023-02-01T07:59:00;8.40;67.90
11647;DHT22;5880;52.342;9.662;2023-02-01T08:01:27;8.40;67.80
11647;DHT22;5880;52.342;9.662;2023-02-01T08:03:58;8.40;67.80
11647;DHT22;5880;52.342;9.662;2023-02-01T08:06:30;8.40;67.80
11647;DHT22;5880;52.342;9.662;2023-02-01T08:08:59;8.50;67.80
11647;DHT22;5880;52.342;9.662;2023-02-01T08:11:25;8.50;67.60
11647;DHT22;5880;52.342;9.662;2023-02-01T08:13:51;8.50;67.50
11647;DHT22;5880;52.342;9.662;2023-02-01T08:16:19;8.60;67.50
11647;DHT22;5880;52.342;9.662;2023-02-01T08:18:45;8.50;67.50
11647;DHT22;5880;52.342;9.662;2023-02-01T08:21:20;8.50;67.50
11647;DHT22;5880;52.342;9.662;2023-02-01T08:23:48;8.60;67.40
11647;DHT22;5880;52.342;9.662;2023-02-01T08:26:22;8.60;67.40
11647;DHT22;5880;52.342;9.662;2023-02-01T08:28:55;8.60;67.30
11647;DHT22;5880;52.342;9.662;2023-02-01T08:31:24;8.60;67.30
11647;DHT22;5880;52.342;9.662;2023-02-01T08:33:54;8.60;67.30
11647;DHT22;5880;52.342;9.662;2023-02-01T08:36:22;8.70;67.40
11647;DHT22;5880;52.342;9.662;2023-02-01T08:38:49;8.70;67.40
11647;DHT22;5880;52.342;9.662;2023-02-01T08:41:20;8.70;67.20
11647;DHT22;5880;52.342;9.662;2023-02-01T08:43:47;8.70;67.20
11647;DHT22;5880;52.342;9.662;2023-02-01T08:46:13;8.70;67.10
11647;DHT22;5880;52.342;9.662;2023-02-01T08:48:39;8.80;67.00
11647;DHT22;5880;52.342;9.662;2023-02-01T08:51:08;8.80;67.00
11647;DHT22;5880;52.342;9.662;2023-02-01T08:53:38;8.80;67.10
11647;DHT22;5880;52.342;9.662;2023-02-01T08:56:10;8.90;67.20
11647;DHT22;5880;52.342;9.662;2023-02-01T08:58:37;8.80;67.00
11647;DHT22;5880;52.342;9.662;2023-02-01T09:01:04;8.90;67.00
11647;DHT22;5880;52.342;9.662;2023-02-01T09:03:35;8.90;66.90
11647;DHT22;5880;52.342;9.662;2023-02-01T09:06:07;9.00;66.80
11647;DHT22;5880;52.342;9.662;2023-02-01T09:08:34;9.00;66.80
11647;DHT22;5880;52.342;9.662;2023-02-01T09:11:03;9.00;66.80
11647;DHT22;5880;52.342;9.662;2023-02-01T09:13:31;9.10;66.90
11647;DHT22;5880;52.342;9.662;2023-02-01T09:15:58;9.10;67.00
11647;DHT22;5880;52.342;9.662;2023-02-01T09:18:25;9.10;66.80
11647;DHT22;5880;52.342;9.662;2023-02-01T09:20:51;9.10;66.60
11647;DHT22;5880;52.342;9.662;2023-02-01T09:23:17;9.20;66.70
11647;DHT22;5880;52.342;9.662;2023-02-01T09:25:42;9.20;66.80
11647;DHT22;5880;52.342;9.662;2023-02-01T09:28:08;9.30;66.90
11647;DHT22;5880;52.342;9.662;2023-02-01T09:30:35;9.30;66.70
11647;DHT22;5880;52.342;9.662;2023-02-01T09:33:02;9.40;66.20
11647;DHT22;5880;52.342;9.662;2023-02-01T09:35:28;9.40;66.40
11647;DHT22;5880;52.342;9.662;2023-02-01T09:37:54;9.40;66.30
11647;DHT22;5880;52.342;9.662;2023-02-01T09:40:20;9.50;66.30
11647;DHT22;5880;52.342;9.662;2023-02-01T09:43:17;9.50;66.00
11647;DHT22;5880;52.342;9.662;2023-02-01T09:46:19;9.50;65.80
11647;DHT22;5880;52.342;9.662;2023-02-01T09:48:51;9.50;65.70
11647;DHT22;5880;52.342;9.662;2023-02-01T09:51:23;9.60;66.00
11647;DHT22;5880;52.342;9.662;2023-02-01T09:54:02;9.60;65.90
11647;DHT22;5880;52.342;9.662;2023-02-01T09:57:06;9.60;65.60
11647;DHT22;5880;52.342;9.662;2023-02-01T09:59:44;9.60;65.70
11647;DHT22;5880;52.342;9.662;2023-02-01T10:02:25;9.70;65.60
11647;DHT22;5880;52.342;9.662;2023-02-01T10:04:58;9.70;65.80
11647;DHT22;5880;52.342;9.662;2023-02-01T10:07:34;9.70;65.60
11647;DHT22;5880;52.342;9.662;2023-02-01T10:10:15;9.70;65.80
11647;DHT22;5880;52.342;9.662;2023-02-01T10:16:24;9.80;65.50
11647;DHT22;5880;52.342;9.662;2023-02-01T10:22:11;9.80;64.30
11647;DHT22;5880;52.342;9.662;2023-02-01T10:27:51;9.90;64.80
11647;DHT22;5880;52.342;9.662;2023-02-01T10:30:28;9.90;65.10
11647;DHT22;5880;52.342;9.662;2023-02-01T10:35:55;9.90;64.70
11647;DHT22;5880;52.342;9.662;2023-02-01T10:38:30;10.00;65.00
11647;DHT22;5880;52.342;9.662;2023-02-01T10:41:02;10.00;65.10
11647;DHT22;5880;52.342;9.662;2023-02-01T10:43:35;10.00;65.10
11647;DHT22;5880;52.342;9.662;2023-02-01T10:46:00;10.00;65.00
11647;DHT22;5880;52.342;9.662;2023-02-01T10:48:26;10.00;64.80
11647;DHT22;5880;52.342;9.662;2023-02-01T10:51:00;10.00;64.70
11647;DHT22;5880;52.342;9.662;2023-02-01T10:53:41;10.00;64.50
11647;DHT22;5880;52.342;9.662;2023-02-01T10:56:12;10.00;64.40
11647;DHT22;5880;52.342;9.662;2023-02-01T10:58:46;10.00;64.30
11647;DHT22;5880;52.342;9.662;2023-02-01T11:01:18;10.00;64.00
11647;DHT22;5880;52.342;9.662;2023-02-01T11:04:00;9.90;64.20
11647;DHT22;5880;52.342;9.662;2023-02-01T11:06:40;9.90;64.40
11647;DHT22;5880;52.342;9.662;2023-02-01T11:11:56;9.90;64.50
11647;DHT22;5880;52.342;9.662;2023-02-01T11:14:39;9.90;64.00
11647;DHT22;5880;52.342;9.662;2023-02-01T11:19:47;9.90;63.80
11647;DHT22;5880;52.342;9.662;2023-02-01T11:22:24;9.90;63.80
11647;DHT22;5880;52.342;9.662;2023-02-01T11:24:53;9.90;64.10
11647;DHT22;5880;52.342;9.662;2023-02-01T11:27:21;9.90;64.00
11647;DHT22;5880;52.342;9.662;2023-02-01T11:29:52;9.90;63.70
11647;DHT22;5880;52.342;9.662;2023-02-01T11:32:23;9.90;63.70
11647;DHT22;5880;52.342;9.662;2023-02-01T11:35:11;9.90;63.80
11647;DHT22;5880;52.342;9.662;2023-02-01T11:37:44;9.90;63.30
11647;DHT22;5880;52.342;9.662;2023-02-01T11:42:57;9.90;64.20
11647;DHT22;5880;52.342;9.662;2023-02-01T11:45:29;9.90;63.50
11647;DHT22;5880;52.342;9.662;2023-02-01T11:47:59;10.00;64.00
11647;DHT22;5880;52.342;9.662;2023-02-01T11:50:45;10.00;64.30
11647;DHT22;5880;52.342;9.662;2023-02-01T11:53:58;10.00;64.30
11647;DHT22;5880;52.342;9.662;2023-02-01T11:56:37;10.00;63.70
11647;DHT22;5880;52.342;9.662;2023-02-01T11:59:17;10.10;64.50
11647;DHT22;5880;52.342;9.662;2023-02-01T12:02:14;10.10;64.90
11647;DHT22;5880;52.342;9.662;2023-02-01T12:07:28;10.20;64.80
11647;DHT22;5880;52.342;9.662;2023-02-01T12:13:21;10.40;64.20
11647;DHT22;5880;52.342;9.662;2023-02-01T12:16:07;10.50;64.50
11647;DHT22;5880;52.342;9.662;2023-02-01T12:19:02;10.50;64.30
11647;DHT22;5880;52.342;9.662;2023-02-01T12:21:51;10.50;63.70
11647;DHT22;5880;52.342;9.662;2023-02-01T12:24:49;10.60;63.40
11647;DHT22;5880;52.342;9.662;2023-02-01T12:27:46;10.60;63.30
11647;DHT22;5880;52.342;9.662;2023-02-01T12:33:26;10.40;63.20
11647;DHT22;5880;52.342;9.662;2023-02-01T12:36:14;10.40;63.10
11647;DHT22;5880;52.342;9.662;2023-02-01T12:47:38;10.00;63.70
11647;DHT22;5880;52.342;9.662;2023-02-01T12:50:29;9.90;64.20
11647;DHT22;5880;52.342;9.662;2023-02-01T12:53:39;9.80;64.50
11647;DHT22;5880;52.342;9.662;2023-02-01T12:56:16;9.70;65.00
11647;DHT22;5880;52.342;9.662;2023-02-01T12:58:56;9.70;65.20
11647;DHT22;5880;52.342;9.662;2023-02-01T13:01:40;9.60;65.20
11647;DHT22;5880;52.342;9.662;2023-02-01T13:04:26;9.60;65.30
11647;DHT22;5880;52.342;9.662;2023-02-01T13:07:06;9.60;65.20
11647;DHT22;5880;52.342;9.662;2023-02-01T13:12:36;9.50;65.40
11647;DHT22;5880;52.342;9.662;2023-02-01T13:15:36;9.50;65.10
11647;DHT22;5880;52.342;9.662;2023-02-01T13:18:13;9.40;65.30
11647;DHT22;5880;52.342;9.662;2023-02-01T13:21:08;9.40;65.40
11647;DHT22;5880;52.342;9.662;2023-02-01T13:23:40;9.40;65.80
11647;DHT22;5880;52.342;9.662;2023-02-01T13:26:10;9.20;65.40
11647;DHT22;5880;52.342;9.662;2023-02-01T13:28:56;9.20;65.30
11647;DHT22;5880;52.342;9.662;2023-02-01T13:31:51;9.20;65.90
11647;DHT22;5880;52.342;9.662;2023-02-01T13:37:48;9.10;65.80
11647;DHT22;5880;52.342;9.662;2023-02-01T13:40:41;9.00;65.80
11647;DHT22;5880;52.342;9.662;2023-02-01T13:43:22;8.90;63.90
11647;DHT22;5880;52.342;9.662;2023-02-01T13:45:57;8.80;62.50
11647;DHT22;5880;52.342;9.662;2023-02-01T13:48:38;8.50;62.20
11647;DHT22;5880;52.342;9.662;2023-02-01T13:54:00;8.00;62.80
11647;DHT22;5880;52.342;9.662;2023-02-01T13:56:27;7.70;62.90
11647;DHT22;5880;52.342;9.662;2023-02-01T13:58:53;7.50;63.10
11647;DHT22;5880;52.342;9.662;2023-02-01T14:03:55;7.10;63.50
11647;DHT22;5880;52.342;9.662;2023-02-01T14:11:53;6.70;64.60
11647;DHT22;5880;52.342;9.662;2023-02-01T14:19:23;6.30;65.40
11647;DHT22;5880;52.342;9.662;2023-02-01T14:21:55;6.30;65.60
11647;DHT22;5880;52.342;9.662;2023-02-01T14:24:28;6.30;65.80
11647;DHT22;5880;52.342;9.662;2023-02-01T14:27:01;6.20;66.10
11647;DHT22;5880;52.342;9.662;2023-02-01T14:29:42;6.20;66.50
11647;DHT22;5880;52.342;9.662;2023-02-01T14:32:24;6.10;66.50
11647;DHT22;5880;52.342;9.662;2023-02-01T14:34:58;6.10;67.40
11647;DHT22;5880;52.342;9.662;2023-02-01T14:37:30;6.00;66.70
11647;DHT22;5880;52.342;9.662;2023-02-01T14:39:59;6.00;66.70
11647;DHT22;5880;52.342;9.662;2023-02-01T14:42:38;6.00;66.80
11647;DHT22;5880;52.342;9.662;2023-02-01T14:53:16;6.20;67.10
11647;DHT22;5880;52.342;9.662;2023-02-01T14:55:56;6.20;67.40
11647;DHT22;5880;52.342;9.662;2023-02-01T14:58:35;6.20;67.20
11647;DHT22;5880;52.342;9.662;2023-02-01T15:01:31;6.20;67.20
11647;DHT22;5880;52.342;9.662;2023-02-01T15:04:11;6.20;67.30
11647;DHT22;5880;52.342;9.662;2023-02-01T15:09:25;6.30;66.90
11647;DHT22;5880;52.342;9.662;2023-02-01T15:14:47;6.20;68.10
11647;DHT22;5880;52.342;9.662;2023-02-01T15:17:29;6.30;67.50
11647;DHT22;5880;52.342;9.662;2023-02-01T15:20:20;6.30;67.60
11647;DHT22;5880;52.342;9.662;2023-02-01T15:23:01;6.30;68.10
11647;DHT22;5880;52.342;9.662;2023-02-01T15:25:36;6.40;68.10
11647;DHT22;5880;52.342;9.662;2023-02-01T15:28:04;6.40;67.90
11647;DHT22;5880;52.342;9.662;2023-02-01T15:30:35;6.40;67.90
11647;DHT22;5880;52.342;9.662;2023-02-01T15:35:46;6.50;68.30
11647;DHT22;5880;52.342;9.662;2023-02-01T15:44:03;6.60;67.90
11647;DHT22;5880;52.342;9.662;2023-02-01T15:46:40;6.60;68.00
11647;DHT22;5880;52.342;9.662;2023-02-01T15:51:53;6.70;67.60
11647;DHT22;5880;52.342;9.662;2023-02-01T15:54:28;6.60;67.40
11647;DHT22;5880;52.342;9.662;2023-02-01T15:56:58;6.70;67.60
11647;DHT22;5880;52.342;9.662;2023-02-01T15:59:41;6.60;67.40
11647;DHT22;5880;52.342;9.662;2023-02-01T16:02:36;6.60;67.90
11647;DHT22;5880;52.342;9.662;2023-02-01T16:05:34;6.70;68.30
11647;DHT22;5880;52.342;9.662;2023-02-01T16:08:20;6.60;68.20
11647;DHT22;5880;52.342;9.662;2023-02-01T16:10:52;6.60;68.20
11647;DHT22;5880;52.342;9.662;2023-02-01T16:13:24;6.60;68.00
11647;DHT22;5880;52.342;9.662;2023-02-01T16:15:50;6.70;67.90
11647;DHT22;5880;52.342;9.662;2023-02-01T16:18:15;6.60;68.10
11647;DHT22;5880;52.342;9.662;2023-02-01T16:20:42;6.60;68.00
11647;DHT22;5880;52.342;9.662;2023-02-01T16:23:08;6.70;68.50
11647;DHT22;5880;52.342;9.662;2023-02-01T16:25:36;6.70;68.50
11647;DHT22;5880;52.342;9.662;2023-02-01T16:28:03;6.80;68.50
11647;DHT22;5880;52.342;9.662;2023-02-01T16:30:30;6.80;68.40
11647;DHT22;5880;52.342;9.662;2023-02-01T16:32:58;6.70;68.30
11647;DHT22;5880;52.342;9.662;2023-02-01T16:35:34;6.80;68.20
11647;DHT22;5880;52.342;9.662;2023-02-01T16:38:08;6.80;68.60
11647;DHT22;5880;52.342;9.662;2023-02-01T16:40:39;6.80;68.30
11647;DHT22;5880;52.342;9.662;2023-02-01T16:43:18;6.90;68.30
11647;DHT22;5880;52.342;9.662;2023-02-01T16:45:47;6.90;68.50
11647;DHT22;5880;52.342;9.662;2023-02-01T16:48:27;6.90;68.40
11647;DHT22;5880;52.342;9.662;2023-02-01T16:50:59;7.00;68.60
11647;DHT22;5880;52.342;9.662;2023-02-01T16:53:30;7.00;68.60
11647;DHT22;5880;52.342;9.662;2023-02-01T16:55:56;7.00;68.40
11647;DHT22;5880;52.342;9.662;2023-02-01T16:58:23;7.10;68.50
11647;DHT22;5880;52.342;9.662;2023-02-01T17:00:50;7.10;68.30
11647;DHT22;5880;52.342;9.662;2023-02-01T17:03:17;7.20;68.20
11647;DHT22;5880;52.342;9.662;2023-02-01T17:05:50;7.20;68.20
11647;DHT22;5880;52.342;9.662;2023-02-01T17:08:28;7.20;68.40
11647;DHT22;5880;52.342;9.662;2023-02-01T17:10:59;7.20;69.20
11647;DHT22;5880;52.342;9.662;2023-02-01T17:13:25;7.30;68.30
11647;DHT22;5880;52.342;9.662;2023-02-01T17:15:58;7.30;68.30
11647;DHT22;5880;52.342;9.662;2023-02-01T17:18:28;7.30;68.40
11647;DHT22;5880;52.342;9.662;2023-02-01T17:21:01;7.40;68.40
11647;DHT22;5880;52.342;9.662;2023-02-01T17:23:29;7.40;68.60
11647;DHT22;5880;52.342;9.662;2023-02-01T17:25:56;7.50;68.60
11647;DHT22;5880;52.342;9.662;2023-02-01T17:28:23;7.50;68.50
11647;DHT22;5880;52.342;9.662;2023-02-01T17:30:49;7.30;68.40
11647;DHT22;5880;52.342;9.662;2023-02-01T17:33:22;7.60;68.40
11647;DHT22;5880;52.342;9.662;2023-02-01T17:35:53;7.60;68.60
11647;DHT22;5880;52.342;9.662;2023-02-01T17:38:19;7.60;68.40
11647;DHT22;5880;52.342;9.662;2023-02-01T17:40:45;7.70;68.40
11647;DHT22;5880;52.342;9.662;2023-02-01T17:43:13;7.70;68.30
11647;DHT22;5880;52.342;9.662;2023-02-01T17:45:47;7.70;68.30
11647;DHT22;5880;52.342;9.662;2023-02-01T17:48:20;7.70;68.50
11647;DHT22;5880;52.342;9.662;2023-02-01T17:50:48;7.70;69.10
11647;DHT22;5880;52.342;9.662;2023-02-01T17:53:19;7.80;68.40
11647;DHT22;5880;52.342;9.662;2023-02-01T17:55:49;7.90;68.40
11647;DHT22;5880;52.342;9.662;2023-02-01T17:58:17;7.80;69.00
11647;DHT22;5880;52.342;9.662;2023-02-01T18:00:44;7.90;68.30
11647;DHT22;5880;52.342;9.662;2023-02-01T18:05:49;7.90;68.40
11647;DHT22;5880;52.342;9.662;2023-02-01T18:08:18;7.90;68.20
11647;DHT22;5880;52.342;9.662;2023-02-01T18:10:53;7.90;68.40
11647;DHT22;5880;52.342;9.662;2023-02-01T18:13:20;7.90;68.60
11647;DHT22;5880;52.342;9.662;2023-02-01T18:15:47;7.90;68.60
11647;DHT22;5880;52.342;9.662;2023-02-01T18:18:12;8.10;68.70
11647;DHT22;5880;52.342;9.662;2023-02-01T18:20:40;8.00;68.60
11647;DHT22;5880;52.342;9.662;2023-02-01T18:23:16;8.00;68.60
11647;DHT22;5880;52.342;9.662;2023-02-01T18:25:44;8.00;68.40
11647;DHT22;5880;52.342;9.662;2023-02-01T18:28:12;8.10;68.30
11647;DHT22;5880;52.342;9.662;2023-02-01T18:30:43;8.00;68.10
11647;DHT22;5880;52.342;9.662;2023-02-01T18:33:15;8.00;68.00